sensor_id;sensor_type;location;lat;lon;timestamp;P1;durP1;ratioP1;P2;durP2;ratioP2
56037;SDS011;41907;47.848;9.000;2022-11-03T00:01:37;12.00;;;3.45;;
56037;SDS011;41907;47.848;9.000;2022-11-03T00:04:05;9.57;;;3.20;;
56037;SDS011;41907;47.848;9.000;2022-11-03T00:06:31;6.40;;;3.20;;
56037;SDS011;41907;47.848;9.000;2022-11-03T00:08:58;9.68;;;3.22;;
56037;SDS011;41907;47.848;9.000;2022-11-03T00:11:24;5.80;;;3.28;;
56037;SDS011;41907;47.848;9.000;2022-11-03T00:13:50;5.13;;;3.15;;
56037;SDS011;41907;47.848;9.000;2022-11-03T00:16:16;6.93;;;3.33;;
56037;SDS011;41907;47.848;9.000;2022-11-03T00:18:41;7.38;;;2.85;;
56037;SDS011;41907;47.848;9.000;2022-11-03T00:21:09;4.30;;;2.80;;
56037;SDS011;41907;47.848;9.000;2022-11-03T00:23:37;4.30;;;2.50;;
56037;SDS011;41907;47.848;9.000;2022-11-03T00:26:11;8.30;;;3.10;;
56037;SDS011;41907;47.848;9.000;2022-11-03T00:28:40;8.75;;;2.75;;
56037;SDS011;41907;47.848;9.000;2022-11-03T00:31:10;4.07;;;2.60;;
56037;SDS011;41907;47.848;9.000;2022-11-03T00:33:37;7.68;;;2.80;;
56037;SDS011;41907;47.848;9.000;2022-11-03T00:36:04;7.40;;;3.13;;
56037;SDS011;41907;47.848;9.000;2022-11-03T00:38:30;10.20;;;3.33;;
56037;SDS011;41907;47.848;9.000;2022-11-03T00:41:00;10.13;;;3.42;;
56037;SDS011;41907;47.848;9.000;2022-11-03T00:43:27;10.52;;;4.35;;
56037;SDS011;41907;47.848;9.000;2022-11-03T00:45:54;6.75;;;3.65;;
56037;SDS011;41907;47.848;9.000;2022-11-03T00:48:20;6.78;;;3.65;;
56037;SDS011;41907;47.848;9.000;2022-11-03T00:53:28;8.50;;;3.75;;
56037;SDS011;41907;47.848;9.000;2022-11-03T00:55:55;9.50;;;4.65;;
56037;SDS011;41907;47.848;9.000;2022-11-03T00:58:20;9.57;;;3.53;;
56037;SDS011;41907;47.848;9.000;2022-11-03T01:00:46;11.00;;;4.00;;
56037;SDS011;41907;47.848;9.000;2022-11-03T01:03:11;10.88;;;3.60;;
56037;SDS011;41907;47.848;9.000;2022-11-03T01:05:40;8.60;;;3.95;;
56037;SDS011;41907;47.848;9.000;2022-11-03T01:08:30;9.30;;;3.58;;
56037;SDS011;41907;47.848;9.000;2022-11-03T01:11:03;7.60;;;4.22;;
56037;SDS011;41907;47.848;9.000;2022-11-03T01:13:51;8.93;;;3.70;;
56037;SDS011;41907;47.848;9.000;2022-11-03T01:16:16;8.57;;;4.03;;
56037;SDS011;41907;47.848;9.000;2022-11-03T01:18:42;10.75;;;4.18;;
56037;SDS011;41907;47.848;9.000;2022-11-03T01:21:07;7.70;;;3.63;;
56037;SDS011;41907;47.848;9.000;2022-11-03T01:23:35;7.38;;;3.70;;
56037;SDS011;41907;47.848;9.000;2022-11-03T01:26:04;7.28;;;3.40;;
56037;SDS011;41907;47.848;9.000;2022-11-03T01:28:34;8.50;;;3.63;;
56037;SDS011;41907;47.848;9.000;2022-11-03T01:31:02;8.32;;;4.25;;
56037;SDS011;41907;47.848;9.000;2022-11-03T01:33:31;9.20;;;3.08;;
56037;SDS011;41907;47.848;9.000;2022-11-03T01:35:57;9.38;;;3.35;;
56037;SDS011;41907;47.848;9.000;2022-11-03T01:38:22;5.95;;;3.10;;
56037;SDS011;41907;47.848;9.000;2022-11-03T01:40:48;7.57;;;3.40;;
56037;SDS011;41907;47.848;9.000;2022-11-03T01:43:17;12.50;;;4.07;;
56037;SDS011;41907;47.848;9.000;2022-11-03T01:45:43;10.77;;;3.78;;
56037;SDS011;41907;47.848;9.000;2022-11-03T01:48:10;9.20;;;2.92;;
56037;SDS011;41907;47.848;9.000;2022-11-03T01:50:37;8.30;;;3.72;;
56037;SDS011;41907;47.848;9.000;2022-11-03T01:53:03;8.32;;;3.50;;
56037;SDS011;41907;47.848;9.000;2022-11-03T01:55:30;5.10;;;3.50;;
56037;SDS011;41907;47.848;9.000;2022-11-03T01:58:09;9.00;;;3.67;;
56037;SDS011;41907;47.848;9.000;2022-11-03T02:00:53;5.82;;;2.70;;
56037;SDS011;41907;47.848;9.000;2022-11-03T02:03:23;12.05;;;4.28;;
56037;SDS011;41907;47.848;9.000;2022-11-03T02:05:50;4.32;;;2.75;;
56037;SDS011;41907;47.848;9.000;2022-11-03T02:08:21;7.93;;;3.45;;
56037;SDS011;41907;47.848;9.000;2022-11-03T02:11:04;8.45;;;3.20;;
56037;SDS011;41907;47.848;9.000;2022-11-03T02:13:50;8.73;;;2.83;;
56037;SDS011;41907;47.848;9.000;2022-11-03T02:16:16;7.30;;;2.88;;
56037;SDS011;41907;47.848;9.000;2022-11-03T02:18:43;4.65;;;2.80;;
56037;SDS011;41907;47.848;9.000;2022-11-03T02:26:54;10.05;;;3.00;;
56037;SDS011;41907;47.848;9.000;2022-11-03T02:29:20;7.35;;;3.47;;
56037;SDS011;41907;47.848;9.000;2022-11-03T02:31:47;5.75;;;3.20;;
56037;SDS011;41907;47.848;9.000;2022-11-03T02:34:20;8.40;;;3.88;;
56037;SDS011;41907;47.848;9.000;2022-11-03T02:39:35;6.90;;;3.80;;
56037;SDS011;41907;47.848;9.000;2022-11-03T02:42:07;7.88;;;3.10;;
56037;SDS011;41907;47.848;9.000;2022-11-03T02:44:35;11.15;;;3.88;;
56037;SDS011;41907;47.848;9.000;2022-11-03T02:47:04;8.15;;;3.90;;
56037;SDS011;41907;47.848;9.000;2022-11-03T02:49:37;6.05;;;3.30;;
56037;SDS011;41907;47.848;9.000;2022-11-03T02:55:00;7.00;;;3.40;;
56037;SDS011;41907;47.848;9.000;2022-11-03T02:57:49;7.95;;;3.92;;
56037;SDS011;41907;47.848;9.000;2022-11-03T03:00:20;5.85;;;2.97;;
56037;SDS011;41907;47.848;9.000;2022-11-03T03:05:28;7.55;;;3.40;;
56037;SDS011;41907;47.848;9.000;2022-11-03T03:08:00;4.25;;;2.75;;
56037;SDS011;41907;47.848;9.000;2022-11-03T03:10:30;5.68;;;3.20;;
56037;SDS011;41907;47.848;9.000;2022-11-03T03:13:00;8.15;;;3.03;;
56037;SDS011;41907;47.848;9.000;2022-11-03T03:18:21;6.65;;;3.00;;
56037;SDS011;41907;47.848;9.000;2022-11-03T03:23:30;10.37;;;3.60;;
56037;SDS011;41907;47.848;9.000;2022-11-03T03:26:02;10.82;;;4.10;;
56037;SDS011;41907;47.848;9.000;2022-11-03T03:28:32;9.43;;;4.38;;
56037;SDS011;41907;47.848;9.000;2022-11-03T03:31:04;12.38;;;5.55;;
56037;SDS011;41907;47.848;9.000;2022-11-03T03:33:33;15.43;;;6.05;;
56037;SDS011;41907;47.848;9.000;2022-11-03T03:36:00;19.35;;;7.25;;
56037;SDS011;41907;47.848;9.000;2022-11-03T03:38:31;17.30;;;7.05;;
56037;SDS011;41907;47.848;9.000;2022-11-03T03:41:00;21.08;;;6.82;;
56037;SDS011;41907;47.848;9.000;2022-11-03T03:43:27;22.13;;;7.57;;
56037;SDS011;41907;47.848;9.000;2022-11-03T03:45:55;14.10;;;6.30;;
56037;SDS011;41907;47.848;9.000;2022-11-03T03:48:25;16.58;;;6.53;;
56037;SDS011;41907;47.848;9.000;2022-11-03T03:50:50;12.85;;;6.47;;
56037;SDS011;41907;47.848;9.000;2022-11-03T03:53:17;12.82;;;5.80;;
56037;SDS011;41907;47.848;9.000;2022-11-03T03:55:48;14.73;;;5.72;;
56037;SDS011;41907;47.848;9.000;2022-11-03T03:58:15;11.95;;;6.03;;
56037;SDS011;41907;47.848;9.000;2022-11-03T04:00:41;13.68;;;6.22;;
56037;SDS011;41907;47.848;9.000;2022-11-03T04:03:14;11.98;;;6.05;;
56037;SDS011;41907;47.848;9.000;2022-11-03T04:05:42;12.02;;;6.47;;
56037;SDS011;41907;47.848;9.000;2022-11-03T04:08:08;12.90;;;6.78;;
56037;SDS011;41907;47.848;9.000;2022-11-03T04:10:34;13.88;;;6.18;;
56037;SDS011;41907;47.848;9.000;2022-11-03T04:13:00;13.13;;;6.60;;
56037;SDS011;41907;47.848;9.000;2022-11-03T04:15:43;12.07;;;6.68;;
56037;SDS011;41907;47.848;9.000;2022-11-03T04:18:27;13.73;;;6.53;;
56037;SDS011;41907;47.848;9.000;2022-11-03T04:21:12;12.13;;;6.18;;
56037;SDS011;41907;47.848;9.000;2022-11-03T04:23:56;12.33;;;6.63;;
56037;SDS011;41907;47.848;9.000;2022-11-03T04:26:25;10.88;;;6.00;;
56037;SDS011;41907;47.848;9.000;2022-11-03T04:28:51;11.90;;;6.47;;
56037;SDS011;41907;47.848;9.000;2022-11-03T04:31:17;13.20;;;7.18;;
56037;SDS011;41907;47.848;9.000;2022-11-03T04:33:43;14.48;;;7.25;;
56037;SDS011;41907;47.848;9.000;2022-11-03T04:36:12;12.65;;;7.30;;
56037;SDS011;41907;47.848;9.000;2022-11-03T04:38:49;12.40;;;6.53;;
56037;SDS011;41907;47.848;9.000;2022-11-03T04:41:18;12.00;;;6.28;;
56037;SDS011;41907;47.848;9.000;2022-11-03T04:43:45;10.55;;;6.15;;
56037;SDS011;41907;47.848;9.000;2022-11-03T04:46:12;11.82;;;5.95;;
56037;SDS011;41907;47.848;9.000;2022-11-03T04:48:39;12.05;;;5.93;;
56037;SDS011;41907;47.848;9.000;2022-11-03T04:51:19;14.35;;;6.25;;
56037;SDS011;41907;47.848;9.000;2022-11-03T04:53:58;11.75;;;6.82;;
56037;SDS011;41907;47.848;9.000;2022-11-03T04:56:30;11.13;;;6.32;;
56037;SDS011;41907;47.848;9.000;2022-11-03T04:58:56;11.77;;;6.20;;
56037;SDS011;41907;47.848;9.000;2022-11-03T05:01:22;12.68;;;6.93;;
56037;SDS011;41907;47.848;9.000;2022-11-03T05:03:49;13.93;;;7.13;;
56037;SDS011;41907;47.848;9.000;2022-11-03T05:06:27;11.07;;;6.75;;
56037;SDS011;41907;47.848;9.000;2022-11-03T05:08:54;12.23;;;6.43;;
56037;SDS011;41907;47.848;9.000;2022-11-03T05:11:29;9.73;;;6.45;;
56037;SDS011;41907;47.848;9.000;2022-11-03T05:14:00;9.82;;;6.60;;
56037;SDS011;41907;47.848;9.000;2022-11-03T05:16:27;10.68;;;6.95;;
56037;SDS011;41907;47.848;9.000;2022-11-03T05:18:53;7.78;;;5.72;;
56037;SDS011;41907;47.848;9.000;2022-11-03T05:21:19;8.80;;;5.43;;
56037;SDS011;41907;47.848;9.000;2022-11-03T05:23:47;8.45;;;5.65;;
56037;SDS011;41907;47.848;9.000;2022-11-03T05:26:20;10.45;;;5.40;;
56037;SDS011;41907;47.848;9.000;2022-11-03T05:28:51;10.95;;;5.68;;
56037;SDS011;41907;47.848;9.000;2022-11-03T05:31:25;9.52;;;5.68;;
56037;SDS011;41907;47.848;9.000;2022-11-03T05:33:53;8.63;;;5.22;;
56037;SDS011;41907;47.848;9.000;2022-11-03T05:36:22;10.57;;;5.72;;
56037;SDS011;41907;47.848;9.000;2022-11-03T05:38:50;8.32;;;4.97;;
56037;SDS011;41907;47.848;9.000;2022-11-03T05:41:21;10.00;;;5.50;;
56037;SDS011;41907;47.848;9.000;2022-11-03T05:44:20;7.50;;;4.88;;
56037;SDS011;41907;47.848;9.000;2022-11-03T05:46:55;8.27;;;5.03;;
56037;SDS011;41907;47.848;9.000;2022-11-03T05:49:21;10.70;;;6.22;;
56037;SDS011;41907;47.848;9.000;2022-11-03T05:51:47;10.85;;;5.97;;
56037;SDS011;41907;47.848;9.000;2022-11-03T05:54:18;8.50;;;5.10;;
56037;SDS011;41907;47.848;9.000;2022-11-03T05:56:47;8.57;;;5.10;;
56037;SDS011;41907;47.848;9.000;2022-11-03T05:59:12;8.63;;;5.63;;
56037;SDS011;41907;47.848;9.000;2022-11-03T06:01:41;8.43;;;5.28;;
56037;SDS011;41907;47.848;9.000;2022-11-03T06:04:21;11.20;;;4.90;;
56037;SDS011;41907;47.848;9.000;2022-11-03T06:06:52;14.73;;;6.30;;
56037;SDS011;41907;47.848;9.000;2022-11-03T06:09:20;9.40;;;5.82;;
56037;SDS011;41907;47.848;9.000;2022-11-03T06:11:49;8.85;;;5.30;;
56037;SDS011;41907;47.848;9.000;2022-11-03T06:14:21;12.18;;;6.07;;
56037;SDS011;41907;47.848;9.000;2022-11-03T06:16:49;10.15;;;5.10;;
56037;SDS011;41907;47.848;9.000;2022-11-03T06:19:24;14.18;;;5.97;;
56037;SDS011;41907;47.848;9.000;2022-11-03T06:21:53;12.00;;;6.05;;
56037;SDS011;41907;47.848;9.000;2022-11-03T06:24:21;13.80;;;5.85;;
56037;SDS011;41907;47.848;9.000;2022-11-03T06:26:49;9.60;;;5.50;;
56037;SDS011;41907;47.848;9.000;2022-11-03T06:29:16;14.85;;;6.10;;
56037;SDS011;41907;47.848;9.000;2022-11-03T06:31:47;11.88;;;6.13;;
56037;SDS011;41907;47.848;9.000;2022-11-03T06:36:48;13.90;;;6.75;;
56037;SDS011;41907;47.848;9.000;2022-11-03T06:39:20;13.07;;;6.60;;
56037;SDS011;41907;47.848;9.000;2022-11-03T06:41:50;14.32;;;5.80;;
56037;SDS011;41907;47.848;9.000;2022-11-03T06:44:24;13.07;;;6.28;;
56037;SDS011;41907;47.848;9.000;2022-11-03T06:46:51;12.55;;;6.15;;
56037;SDS011;41907;47.848;9.000;2022-11-03T06:49:30;20.40;;;6.85;;
56037;SDS011;41907;47.848;9.000;2022-11-03T06:52:01;15.45;;;5.80;;
56037;SDS011;41907;47.848;9.000;2022-11-03T06:54:38;15.95;;;7.00;;
56037;SDS011;41907;47.848;9.000;2022-11-03T06:57:05;21.10;;;7.28;;
56037;SDS011;41907;47.848;9.000;2022-11-03T06:59:37;23.17;;;8.13;;
56037;SDS011;41907;47.848;9.000;2022-11-03T07:02:04;10.93;;;5.70;;
56037;SDS011;41907;47.848;9.000;2022-11-03T07:04:52;15.70;;;6.35;;
56037;SDS011;41907;47.848;9.000;2022-11-03T07:07:17;21.48;;;7.75;;
56037;SDS011;41907;47.848;9.000;2022-11-03T07:09:43;25.77;;;7.22;;
56037;SDS011;41907;47.848;9.000;2022-11-03T07:12:10;15.38;;;7.38;;
56037;SDS011;41907;47.848;9.000;2022-11-03T07:14:40;23.15;;;8.70;;
56037;SDS011;41907;47.848;9.000;2022-11-03T07:17:13;18.67;;;7.43;;
56037;SDS011;41907;47.848;9.000;2022-11-03T07:19:45;22.98;;;8.02;;
56037;SDS011;41907;47.848;9.000;2022-11-03T07:22:29;16.90;;;7.93;;
56037;SDS011;41907;47.848;9.000;2022-11-03T07:24:58;19.45;;;8.50;;
56037;SDS011;41907;47.848;9.000;2022-11-03T07:30:05;22.33;;;7.35;;
56037;SDS011;41907;47.848;9.000;2022-11-03T07:32:36;24.33;;;8.35;;
56037;SDS011;41907;47.848;9.000;2022-11-03T07:35:15;28.35;;;7.57;;
56037;SDS011;41907;47.848;9.000;2022-11-03T07:37:42;25.58;;;8.45;;
56037;SDS011;41907;47.848;9.000;2022-11-03T07:40:12;25.13;;;8.15;;
56037;SDS011;41907;47.848;9.000;2022-11-03T07:42:45;26.58;;;7.63;;
56037;SDS011;41907;47.848;9.000;2022-11-03T07:45:30;27.45;;;8.32;;
56037;SDS011;41907;47.848;9.000;2022-11-03T07:48:03;36.75;;;8.50;;
56037;SDS011;41907;47.848;9.000;2022-11-03T07:50:38;31.30;;;8.95;;
56037;SDS011;41907;47.848;9.000;2022-11-03T07:53:08;21.98;;;8.20;;
56037;SDS011;41907;47.848;9.000;2022-11-03T07:55:37;30.27;;;8.05;;
56037;SDS011;41907;47.848;9.000;2022-11-03T07:58:12;44.13;;;7.65;;
56037;SDS011;41907;47.848;9.000;2022-11-03T08:00:44;21.45;;;8.60;;
56037;SDS011;41907;47.848;9.000;2022-11-03T08:03:12;28.83;;;7.53;;
56037;SDS011;41907;47.848;9.000;2022-11-03T08:05:48;14.18;;;6.85;;
56037;SDS011;41907;47.848;9.000;2022-11-03T08:08:13;18.15;;;6.95;;
56037;SDS011;41907;47.848;9.000;2022-11-03T08:10:39;14.95;;;7.05;;
56037;SDS011;41907;47.848;9.000;2022-11-03T08:13:04;14.98;;;7.22;;
56037;SDS011;41907;47.848;9.000;2022-11-03T08:15:29;17.40;;;6.85;;
56037;SDS011;41907;47.848;9.000;2022-11-03T08:17:55;17.38;;;6.70;;
56037;SDS011;41907;47.848;9.000;2022-11-03T08:20:20;14.18;;;6.20;;
56037;SDS011;41907;47.848;9.000;2022-11-03T08:22:45;14.35;;;5.97;;
56037;SDS011;41907;47.848;9.000;2022-11-03T08:25:10;10.65;;;5.85;;
56037;SDS011;41907;47.848;9.000;2022-11-03T08:27:36;16.30;;;6.30;;
56037;SDS011;41907;47.848;9.000;2022-11-03T08:30:01;18.23;;;6.50;;
56037;SDS011;41907;47.848;9.000;2022-11-03T08:32:27;19.80;;;5.95;;
56037;SDS011;41907;47.848;9.000;2022-11-03T08:34:52;11.75;;;5.75;;
56037;SDS011;41907;47.848;9.000;2022-11-03T08:37:17;10.38;;;5.75;;
56037;SDS011;41907;47.848;9.000;2022-11-03T08:39:42;9.75;;;5.45;;
56037;SDS011;41907;47.848;9.000;2022-11-03T08:42:08;11.32;;;6.45;;
56037;SDS011;41907;47.848;9.000;2022-11-03T08:44:33;11.55;;;5.82;;
56037;SDS011;41907;47.848;9.000;2022-11-03T08:46:58;10.23;;;5.53;;
56037;SDS011;41907;47.848;9.000;2022-11-03T08:49:24;9.90;;;5.82;;
56037;SDS011;41907;47.848;9.000;2022-11-03T08:51:49;10.10;;;5.72;;
56037;SDS011;41907;47.848;9.000;2022-11-03T08:54:14;10.38;;;5.82;;
56037;SDS011;41907;47.848;9.000;2022-11-03T08:56:40;12.15;;;6.13;;
56037;SDS011;41907;47.848;9.000;2022-11-03T08:59:05;10.23;;;6.35;;
56037;SDS011;41907;47.848;9.000;2022-11-03T09:01:30;9.70;;;5.30;;
56037;SDS011;41907;47.848;9.000;2022-11-03T09:03:56;8.25;;;4.68;;
56037;SDS011;41907;47.848;9.000;2022-11-03T09:06:21;8.48;;;5.30;;
56037;SDS011;41907;47.848;9.000;2022-11-03T09:08:46;7.25;;;4.57;;
56037;SDS011;41907;47.848;9.000;2022-11-03T09:11:12;7.03;;;4.72;;
56037;SDS011;41907;47.848;9.000;2022-11-03T09:13:37;8.75;;;5.07;;
56037;SDS011;41907;47.848;9.000;2022-11-03T09:16:02;7.70;;;5.00;;
56037;SDS011;41907;47.848;9.000;2022-11-03T09:18:28;7.60;;;4.72;;
56037;SDS011;41907;47.848;9.000;2022-11-03T09:20:53;9.55;;;5.03;;
56037;SDS011;41907;47.848;9.000;2022-11-03T09:23:18;7.20;;;4.75;;
56037;SDS011;41907;47.848;9.000;2022-11-03T09:25:44;7.93;;;5.35;;
56037;SDS011;41907;47.848;9.000;2022-11-03T09:28:09;8.32;;;5.38;;
56037;SDS011;41907;47.848;9.000;2022-11-03T09:30:34;13.05;;;6.20;;
56037;SDS011;41907;47.848;9.000;2022-11-03T09:33:00;11.90;;;7.10;;
56037;SDS011;41907;47.848;9.000;2022-11-03T09:35:25;13.65;;;5.70;;
56037;SDS011;41907;47.848;9.000;2022-11-03T09:37:51;9.45;;;5.75;;
56037;SDS011;41907;47.848;9.000;2022-11-03T09:40:17;10.43;;;5.60;;
56037;SDS011;41907;47.848;9.000;2022-11-03T09:42:43;9.05;;;5.88;;
56037;SDS011;41907;47.848;9.000;2022-11-03T09:45:09;7.90;;;5.35;;
56037;SDS011;41907;47.848;9.000;2022-11-03T09:47:35;10.68;;;7.05;;
56037;SDS011;41907;47.848;9.000;2022-11-03T09:50:03;11.07;;;5.82;;
56037;SDS011;41907;47.848;9.000;2022-11-03T09:52:30;13.38;;;7.28;;
56037;SDS011;41907;47.848;9.000;2022-11-03T09:54:57;13.95;;;7.97;;
56037;SDS011;41907;47.848;9.000;2022-11-03T09:57:25;11.98;;;7.47;;
56037;SDS011;41907;47.848;9.000;2022-11-03T09:59:51;11.73;;;7.68;;
56037;SDS011;41907;47.848;9.000;2022-11-03T10:04:50;18.33;;;11.55;;
56037;SDS011;41907;47.848;9.000;2022-11-03T10:07:17;30.35;;;16.25;;
56037;SDS011;41907;47.848;9.000;2022-11-03T10:09:45;38.33;;;18.75;;
56037;SDS011;41907;47.848;9.000;2022-11-03T10:12:12;17.75;;;10.18;;
56037;SDS011;41907;47.848;9.000;2022-11-03T10:14:38;21.77;;;12.10;;
56037;SDS011;41907;47.848;9.000;2022-11-03T10:17:05;34.72;;;17.50;;
56037;SDS011;41907;47.848;9.000;2022-11-03T10:19:30;28.77;;;15.55;;
56037;SDS011;41907;47.848;9.000;2022-11-03T10:21:56;27.05;;;13.30;;
56037;SDS011;41907;47.848;9.000;2022-11-03T10:24:22;24.10;;;13.23;;
56037;SDS011;41907;47.848;9.000;2022-11-03T10:26:51;22.13;;;11.85;;
56037;SDS011;41907;47.848;9.000;2022-11-03T10:29:22;25.77;;;10.55;;
56037;SDS011;41907;47.848;9.000;2022-11-03T10:31:50;19.58;;;10.10;;
56037;SDS011;41907;47.848;9.000;2022-11-03T10:39:41;26.70;;;11.93;;
56037;SDS011;41907;47.848;9.000;2022-11-03T10:42:08;18.25;;;10.88;;
56037;SDS011;41907;47.848;9.000;2022-11-03T10:44:44;20.38;;;10.20;;
56037;SDS011;41907;47.848;9.000;2022-11-03T10:47:20;16.90;;;9.80;;
56037;SDS011;41907;47.848;9.000;2022-11-03T10:49:54;21.25;;;10.80;;
56037;SDS011;41907;47.848;9.000;2022-11-03T10:52:20;22.05;;;11.75;;
56037;SDS011;41907;47.848;9.000;2022-11-03T10:54:49;39.72;;;18.13;;
56037;SDS011;41907;47.848;9.000;2022-11-03T10:57:15;35.80;;;15.18;;
56037;SDS011;41907;47.848;9.000;2022-11-03T10:59:41;16.08;;;8.73;;
56037;SDS011;41907;47.848;9.000;2022-11-03T11:02:17;16.17;;;8.95;;
56037;SDS011;41907;47.848;9.000;2022-11-03T11:04:59;15.75;;;8.38;;
56037;SDS011;41907;47.848;9.000;2022-11-03T11:07:39;20.15;;;9.13;;
56037;SDS011;41907;47.848;9.000;2022-11-03T11:10:12;19.92;;;8.50;;
56037;SDS011;41907;47.848;9.000;2022-11-03T11:13:04;17.77;;;9.13;;
56037;SDS011;41907;47.848;9.000;2022-11-03T11:15:46;24.00;;;10.60;;
56037;SDS011;41907;47.848;9.000;2022-11-03T11:23:45;33.40;;;13.93;;
56037;SDS011;41907;47.848;9.000;2022-11-03T11:26:13;36.03;;;14.80;;
56037;SDS011;41907;47.848;9.000;2022-11-03T11:28:39;33.92;;;14.23;;
56037;SDS011;41907;47.848;9.000;2022-11-03T11:36:36;31.83;;;14.90;;
56037;SDS011;41907;47.848;9.000;2022-11-03T11:39:09;36.55;;;14.80;;
56037;SDS011;41907;47.848;9.000;2022-11-03T11:52:41;39.75;;;16.17;;
56037;SDS011;41907;47.848;9.000;2022-11-03T11:55:57;36.63;;;14.73;;
56037;SDS011;41907;47.848;9.000;2022-11-03T11:58:11;40.28;;;18.60;;
56037;SDS011;41907;47.848;9.000;2022-11-03T12:00:49;26.27;;;12.93;;
56037;SDS011;41907;47.848;9.000;2022-11-03T12:03:29;37.15;;;15.00;;
56037;SDS011;41907;47.848;9.000;2022-11-03T12:05:55;22.08;;;11.65;;
56037;SDS011;41907;47.848;9.000;2022-11-03T12:08:24;22.75;;;12.32;;
56037;SDS011;41907;47.848;9.000;2022-11-03T12:10:54;20.08;;;11.73;;
56037;SDS011;41907;47.848;9.000;2022-11-03T12:16:30;20.88;;;10.30;;
56037;SDS011;41907;47.848;9.000;2022-11-03T12:18:55;18.08;;;9.90;;
56037;SDS011;41907;47.848;9.000;2022-11-03T12:29:52;18.02;;;10.20;;
56037;SDS011;41907;47.848;9.000;2022-11-03T12:32:18;19.90;;;10.13;;
56037;SDS011;41907;47.848;9.000;2022-11-03T12:34:44;15.45;;;9.20;;
56037;SDS011;41907;47.848;9.000;2022-11-03T12:37:10;16.95;;;9.38;;
56037;SDS011;41907;47.848;9.000;2022-11-03T12:39:36;20.30;;;9.60;;
56037;SDS011;41907;47.848;9.000;2022-11-03T12:42:02;14.95;;;8.88;;
56037;SDS011;41907;47.848;9.000;2022-11-03T12:44:27;16.30;;;9.35;;
56037;SDS011;41907;47.848;9.000;2022-11-03T12:46:52;16.70;;;9.48;;
56037;SDS011;41907;47.848;9.000;2022-11-03T12:49:18;12.65;;;7.82;;
56037;SDS011;41907;47.848;9.000;2022-11-03T12:51:43;17.92;;;10.07;;
56037;SDS011;41907;47.848;9.000;2022-11-03T12:54:09;19.15;;;11.57;;
56037;SDS011;41907;47.848;9.000;2022-11-03T12:56:34;19.52;;;9.75;;
56037;SDS011;41907;47.848;9.000;2022-11-03T12:58:59;39.05;;;22.42;;
56037;SDS011;41907;47.848;9.000;2022-11-03T13:01:25;22.42;;;11.95;;
56037;SDS011;41907;47.848;9.000;2022-11-03T13:03:50;16.65;;;8.70;;
56037;SDS011;41907;47.848;9.000;2022-11-03T13:06:16;14.68;;;8.45;;
56037;SDS011;41907;47.848;9.000;2022-11-03T13:08:41;16.88;;;9.02;;
56037;SDS011;41907;47.848;9.000;2022-11-03T13:11:07;15.15;;;9.73;;
56037;SDS011;41907;47.848;9.000;2022-11-03T13:13:52;14.50;;;9.25;;
56037;SDS011;41907;47.848;9.000;2022-11-03T13:16:18;19.30;;;13.57;;
56037;SDS011;41907;47.848;9.000;2022-11-03T13:18:43;16.23;;;9.38;;
56037;SDS011;41907;47.848;9.000;2022-11-03T13:21:09;11.93;;;7.63;;
56037;SDS011;41907;47.848;9.000;2022-11-03T13:23:34;12.70;;;8.27;;
56037;SDS011;41907;47.848;9.000;2022-11-03T13:25:59;13.35;;;7.63;;
56037;SDS011;41907;47.848;9.000;2022-11-03T13:28:25;19.45;;;10.88;;
56037;SDS011;41907;47.848;9.000;2022-11-03T13:30:50;16.85;;;8.85;;
56037;SDS011;41907;47.848;9.000;2022-11-03T13:33:15;12.40;;;8.35;;
56037;SDS011;41907;47.848;9.000;2022-11-03T13:35:40;16.45;;;9.57;;
56037;SDS011;41907;47.848;9.000;2022-11-03T13:38:06;14.50;;;8.20;;
56037;SDS011;41907;47.848;9.000;2022-11-03T13:40:31;18.60;;;9.38;;
56037;SDS011;41907;47.848;9.000;2022-11-03T13:42:56;14.07;;;8.95;;
56037;SDS011;41907;47.848;9.000;2022-11-03T13:45:22;26.50;;;17.35;;
56037;SDS011;41907;47.848;9.000;2022-11-03T13:47:47;17.85;;;12.55;;
56037;SDS011;41907;47.848;9.000;2022-11-03T13:50:13;15.35;;;8.98;;
56037;SDS011;41907;47.848;9.000;2022-11-03T13:52:38;18.45;;;11.02;;
56037;SDS011;41907;47.848;9.000;2022-11-03T13:55:04;15.35;;;9.18;;
56037;SDS011;41907;47.848;9.000;2022-11-03T13:57:29;14.20;;;8.98;;
56037;SDS011;41907;47.848;9.000;2022-11-03T13:59:55;23.65;;;14.80;;
56037;SDS011;41907;47.848;9.000;2022-11-03T14:02:20;19.60;;;12.30;;
56037;SDS011;41907;47.848;9.000;2022-11-03T14:04:46;16.67;;;9.07;;
56037;SDS011;41907;47.848;9.000;2022-11-03T14:07:11;15.40;;;9.13;;
56037;SDS011;41907;47.848;9.000;2022-11-03T14:09:37;14.63;;;8.40;;
56037;SDS011;41907;47.848;9.000;2022-11-03T14:12:02;14.98;;;8.02;;
56037;SDS011;41907;47.848;9.000;2022-11-03T14:14:46;13.77;;;8.38;;
56037;SDS011;41907;47.848;9.000;2022-11-03T14:17:11;13.20;;;8.27;;
56037;SDS011;41907;47.848;9.000;2022-11-03T14:19:37;17.77;;;11.57;;
56037;SDS011;41907;47.848;9.000;2022-11-03T14:22:02;13.95;;;8.90;;
56037;SDS011;41907;47.848;9.000;2022-11-03T14:24:28;13.73;;;8.02;;
56037;SDS011;41907;47.848;9.000;2022-11-03T14:26:53;13.63;;;8.35;;
56037;SDS011;41907;47.848;9.000;2022-11-03T14:29:19;19.25;;;8.48;;
56037;SDS011;41907;47.848;9.000;2022-11-03T14:31:44;14.38;;;8.90;;
56037;SDS011;41907;47.848;9.000;2022-11-03T14:34:09;16.30;;;9.15;;
56037;SDS011;41907;47.848;9.000;2022-11-03T14:36:34;14.40;;;8.25;;
56037;SDS011;41907;47.848;9.000;2022-11-03T14:39:00;17.35;;;9.63;;
56037;SDS011;41907;47.848;9.000;2022-11-03T14:41:25;17.40;;;9.35;;
56037;SDS011;41907;47.848;9.000;2022-11-03T14:44:09;13.57;;;8.13;;
56037;SDS011;41907;47.848;9.000;2022-11-03T14:46:35;13.35;;;9.05;;
56037;SDS011;41907;47.848;9.000;2022-11-03T14:49:00;13.40;;;8.60;;
56037;SDS011;41907;47.848;9.000;2022-11-03T14:51:26;13.45;;;8.77;;
56037;SDS011;41907;47.848;9.000;2022-11-03T14:53:52;17.35;;;9.20;;
56037;SDS011;41907;47.848;9.000;2022-11-03T14:56:17;14.38;;;9.13;;
56037;SDS011;41907;47.848;9.000;2022-11-03T14:58:43;17.52;;;8.95;;
56037;SDS011;41907;47.848;9.000;2022-11-03T15:01:08;13.80;;;9.02;;
56037;SDS011;41907;47.848;9.000;2022-11-03T15:03:34;14.48;;;9.48;;
56037;SDS011;41907;47.848;9.000;2022-11-03T15:05:59;15.77;;;9.25;;
56037;SDS011;41907;47.848;9.000;2022-11-03T15:08:24;15.43;;;9.05;;
56037;SDS011;41907;47.848;9.000;2022-11-03T15:10:50;18.48;;;11.02;;
56037;SDS011;41907;47.848;9.000;2022-11-03T15:13:15;18.98;;;11.05;;
56037;SDS011;41907;47.848;9.000;2022-11-03T15:15:41;15.48;;;9.45;;
56037;SDS011;41907;47.848;9.000;2022-11-03T15:18:07;15.07;;;9.38;;
56037;SDS011;41907;47.848;9.000;2022-11-03T15:20:33;14.65;;;8.93;;
56037;SDS011;41907;47.848;9.000;2022-11-03T15:23:03;37.88;;;21.45;;
56037;SDS011;41907;47.848;9.000;2022-11-03T15:25:30;21.65;;;12.30;;
56037;SDS011;41907;47.848;9.000;2022-11-03T15:27:56;29.30;;;15.63;;
56037;SDS011;41907;47.848;9.000;2022-11-03T15:30:21;163.50;;;57.45;;
56037;SDS011;41907;47.848;9.000;2022-11-03T15:32:47;24.77;;;11.88;;
56037;SDS011;41907;47.848;9.000;2022-11-03T15:35:13;23.02;;;12.48;;
56037;SDS011;41907;47.848;9.000;2022-11-03T15:37:38;27.42;;;16.98;;
56037;SDS011;41907;47.848;9.000;2022-11-03T15:40:04;26.40;;;14.85;;
56037;SDS011;41907;47.848;9.000;2022-11-03T15:42:30;19.88;;;11.70;;
56037;SDS011;41907;47.848;9.000;2022-11-03T15:44:55;20.35;;;11.18;;
56037;SDS011;41907;47.848;9.000;2022-11-03T15:47:21;19.63;;;11.63;;
56037;SDS011;41907;47.848;9.000;2022-11-03T15:49:46;21.80;;;12.40;;
56037;SDS011;41907;47.848;9.000;2022-11-03T15:52:11;31.00;;;18.77;;
56037;SDS011;41907;47.848;9.000;2022-11-03T15:54:37;21.67;;;12.70;;